sensor_id;sensor_type;location;lat;lon;timestamp;P1;durP1;ratioP1;P2;durP2;ratioP2
16029;SDS011;34770;49.272;11.070;2022-07-05T00:02:03;2.45;;;1.20;;
16029;SDS011;34770;49.272;11.070;2022-07-05T00:04:29;2.40;;;1.00;;
16029;SDS011;34770;49.272;11.070;2022-07-05T00:06:54;1.45;;;1.10;;
16029;SDS011;34770;49.272;11.070;2022-07-05T00:09:39;2.70;;;1.10;;
16029;SDS011;34770;49.272;11.070;2022-07-05T00:12:04;1.02;;;0.93;;
16029;SDS011;34770;49.272;11.070;2022-07-05T00:14:30;1.45;;;1.13;;
16029;SDS011;34770;49.272;11.070;2022-07-05T00:16:56;1.05;;;0.93;;
16029;SDS011;34770;49.272;11.070;2022-07-05T00:19:21;2.05;;;1.23;;
16029;SDS011;34770;49.272;11.070;2022-07-05T00:21:46;1.00;;;1.00;;
16029;SDS011;34770;49.272;11.070;2022-07-05T00:24:12;1.25;;;1.00;;
16029;SDS011;34770;49.272;11.070;2022-07-05T00:26:37;2.10;;;1.10;;
16029;SDS011;34770;49.272;11.070;2022-07-05T00:29:03;1.58;;;0.95;;
16029;SDS011;34770;49.272;11.070;2022-07-05T00:31:28;1.10;;;1.10;;
16029;SDS011;34770;49.272;11.070;2022-07-05T00:33:54;1.27;;;1.08;;
16029;SDS011;34770;49.272;11.070;2022-07-05T00:36:19;1.90;;;1.05;;
16029;SDS011;34770;49.272;11.070;2022-07-05T00:38:44;2.15;;;1.10;;
16029;SDS011;34770;49.272;11.070;2022-07-05T00:41:10;1.52;;;1.20;;
16029;SDS011;34770;49.272;11.070;2022-07-05T00:43:35;0.90;;;0.90;;
16029;SDS011;34770;49.272;11.070;2022-07-05T00:46:01;1.75;;;1.02;;
16029;SDS011;34770;49.272;11.070;2022-07-05T00:48:26;1.30;;;1.10;;
16029;SDS011;34770;49.272;11.070;2022-07-05T00:50:52;2.72;;;1.00;;
16029;SDS011;34770;49.272;11.070;2022-07-05T00:53:17;2.63;;;1.20;;
16029;SDS011;34770;49.272;11.070;2022-07-05T00:55:43;2.00;;;1.25;;
16029;SDS011;34770;49.272;11.070;2022-07-05T00:58:09;1.10;;;0.90;;
16029;SDS011;34770;49.272;11.070;2022-07-05T01:00:36;1.67;;;1.10;;
16029;SDS011;34770;49.272;11.070;2022-07-05T01:03:01;1.17;;;1.08;;
16029;SDS011;34770;49.272;11.070;2022-07-05T01:05:28;1.17;;;1.02;;
16029;SDS011;34770;49.272;11.070;2022-07-05T01:07:54;1.25;;;1.15;;
16029;SDS011;34770;49.272;11.070;2022-07-05T01:10:21;1.35;;;1.25;;
16029;SDS011;34770;49.272;11.070;2022-07-05T01:12:47;2.50;;;1.25;;
16029;SDS011;34770;49.272;11.070;2022-07-05T01:15:12;2.83;;;0.98;;
16029;SDS011;34770;49.272;11.070;2022-07-05T01:17:38;1.80;;;1.30;;
16029;SDS011;34770;49.272;11.070;2022-07-05T01:20:05;1.58;;;1.20;;
16029;SDS011;34770;49.272;11.070;2022-07-05T01:25:24;2.08;;;1.50;;
16029;SDS011;34770;49.272;11.070;2022-07-05T01:27:52;1.10;;;1.00;;
16029;SDS011;34770;49.272;11.070;2022-07-05T01:30:19;1.30;;;1.20;;
16029;SDS011;34770;49.272;11.070;2022-07-05T01:32:44;4.43;;;1.33;;
16029;SDS011;34770;49.272;11.070;2022-07-05T01:35:10;1.42;;;1.33;;
16029;SDS011;34770;49.272;11.070;2022-07-05T01:37:37;1.40;;;1.30;;
16029;SDS011;34770;49.272;11.070;2022-07-05T01:40:03;1.60;;;1.50;;
16029;SDS011;34770;49.272;11.070;2022-07-05T01:42:30;1.50;;;1.40;;
16029;SDS011;34770;49.272;11.070;2022-07-05T01:44:55;1.48;;;1.38;;
16029;SDS011;34770;49.272;11.070;2022-07-05T01:47:21;1.25;;;1.15;;
16029;SDS011;34770;49.272;11.070;2022-07-05T01:49:48;2.00;;;1.60;;
16029;SDS011;34770;49.272;11.070;2022-07-05T01:52:16;2.30;;;1.80;;
16029;SDS011;34770;49.272;11.070;2022-07-05T01:54:44;1.77;;;1.52;;
16029;SDS011;34770;49.272;11.070;2022-07-05T01:57:10;2.05;;;1.40;;
16029;SDS011;34770;49.272;11.070;2022-07-05T01:59:36;1.70;;;1.60;;
16029;SDS011;34770;49.272;11.070;2022-07-05T02:02:02;2.42;;;2.00;;
16029;SDS011;34770;49.272;11.070;2022-07-05T02:04:29;3.17;;;1.80;;
16029;SDS011;34770;49.272;11.070;2022-07-05T02:06:55;2.45;;;2.00;;
16029;SDS011;34770;49.272;11.070;2022-07-05T02:09:20;2.20;;;1.83;;
16029;SDS011;34770;49.272;11.070;2022-07-05T02:11:46;3.28;;;2.10;;
16029;SDS011;34770;49.272;11.070;2022-07-05T02:14:11;3.15;;;2.42;;
16029;SDS011;34770;49.272;11.070;2022-07-05T02:16:37;2.35;;;2.08;;
16029;SDS011;34770;49.272;11.070;2022-07-05T02:19:03;2.17;;;1.80;;
16029;SDS011;34770;49.272;11.070;2022-07-05T02:21:29;3.85;;;2.30;;
16029;SDS011;34770;49.272;11.070;2022-07-05T02:23:54;2.55;;;2.15;;
16029;SDS011;34770;49.272;11.070;2022-07-05T02:26:20;2.85;;;1.88;;
16029;SDS011;34770;49.272;11.070;2022-07-05T02:28:45;2.13;;;1.48;;
16029;SDS011;34770;49.272;11.070;2022-07-05T02:31:11;1.90;;;1.80;;
16029;SDS011;34770;49.272;11.070;2022-07-05T02:33:36;2.13;;;1.77;;
16029;SDS011;34770;49.272;11.070;2022-07-05T02:36:09;8.13;;;2.05;;
16029;SDS011;34770;49.272;11.070;2022-07-05T02:38:36;2.67;;;1.75;;
16029;SDS011;34770;49.272;11.070;2022-07-05T02:41:04;2.17;;;1.98;;
16029;SDS011;34770;49.272;11.070;2022-07-05T02:43:31;3.80;;;1.80;;
16029;SDS011;34770;49.272;11.070;2022-07-05T02:45:57;1.40;;;1.30;;
16029;SDS011;34770;49.272;11.070;2022-07-05T02:48:22;3.55;;;1.50;;
16029;SDS011;34770;49.272;11.070;2022-07-05T02:50:48;5.13;;;1.50;;
16029;SDS011;34770;49.272;11.070;2022-07-05T02:53:13;1.63;;;1.52;;
16029;SDS011;34770;49.272;11.070;2022-07-05T02:55:39;3.35;;;1.70;;
16029;SDS011;34770;49.272;11.070;2022-07-05T02:58:04;1.77;;;1.52;;
16029;SDS011;34770;49.272;11.070;2022-07-05T03:00:29;1.80;;;1.70;;
16029;SDS011;34770;49.272;11.070;2022-07-05T03:02:55;1.98;;;1.88;;
16029;SDS011;34770;49.272;11.070;2022-07-05T03:05:20;2.47;;;1.85;;
16029;SDS011;34770;49.272;11.070;2022-07-05T03:07:46;2.65;;;1.90;;
16029;SDS011;34770;49.272;11.070;2022-07-05T03:10:11;1.88;;;1.77;;
16029;SDS011;34770;49.272;11.070;2022-07-05T03:12:36;1.67;;;1.58;;
16029;SDS011;34770;49.272;11.070;2022-07-05T03:15:03;3.60;;;1.67;;
16029;SDS011;34770;49.272;11.070;2022-07-05T03:17:29;3.65;;;2.08;;
16029;SDS011;34770;49.272;11.070;2022-07-05T03:19:54;1.88;;;1.70;;
16029;SDS011;34770;49.272;11.070;2022-07-05T03:22:20;2.53;;;1.90;;
16029;SDS011;34770;49.272;11.070;2022-07-05T03:24:45;2.30;;;2.10;;
16029;SDS011;34770;49.272;11.070;2022-07-05T03:27:10;2.17;;;1.95;;
16029;SDS011;34770;49.272;11.070;2022-07-05T03:29:36;3.33;;;1.70;;
16029;SDS011;34770;49.272;11.070;2022-07-05T03:32:01;2.38;;;1.63;;
16029;SDS011;34770;49.272;11.070;2022-07-05T03:34:27;2.38;;;1.95;;
16029;SDS011;34770;49.272;11.070;2022-07-05T03:36:52;4.80;;;1.90;;
16029;SDS011;34770;49.272;11.070;2022-07-05T03:39:17;2.42;;;2.17;;
16029;SDS011;34770;49.272;11.070;2022-07-05T03:41:43;5.07;;;2.25;;
16029;SDS011;34770;49.272;11.070;2022-07-05T03:44:08;1.92;;;1.83;;
16029;SDS011;34770;49.272;11.070;2022-07-05T03:46:33;2.85;;;1.92;;
16029;SDS011;34770;49.272;11.070;2022-07-05T03:48:59;1.98;;;1.88;;
16029;SDS011;34770;49.272;11.070;2022-07-05T03:51:24;3.75;;;2.42;;
16029;SDS011;34770;49.272;11.070;2022-07-05T03:53:50;2.65;;;1.50;;
16029;SDS011;34770;49.272;11.070;2022-07-05T03:56:15;3.47;;;1.80;;
16029;SDS011;34770;49.272;11.070;2022-07-05T03:58:44;2.05;;;1.83;;
16029;SDS011;34770;49.272;11.070;2022-07-05T04:01:13;2.45;;;2.25;;
16029;SDS011;34770;49.272;11.070;2022-07-05T04:03:39;2.40;;;1.90;;
16029;SDS011;34770;49.272;11.070;2022-07-05T04:06:05;2.10;;;2.00;;
16029;SDS011;34770;49.272;11.070;2022-07-05T04:08:31;1.90;;;1.80;;
16029;SDS011;34770;49.272;11.070;2022-07-05T04:10:56;3.42;;;2.00;;
16029;SDS011;34770;49.272;11.070;2022-07-05T04:13:21;1.80;;;1.70;;
16029;SDS011;34770;49.272;11.070;2022-07-05T04:15:47;2.95;;;1.77;;
16029;SDS011;34770;49.272;11.070;2022-07-05T04:18:12;3.70;;;2.22;;
16029;SDS011;34770;49.272;11.070;2022-07-05T04:20:37;2.03;;;1.85;;
16029;SDS011;34770;49.272;11.070;2022-07-05T04:23:03;2.08;;;1.88;;
16029;SDS011;34770;49.272;11.070;2022-07-05T04:25:29;3.30;;;2.50;;
16029;SDS011;34770;49.272;11.070;2022-07-05T04:27:55;2.03;;;1.83;;
16029;SDS011;34770;49.272;11.070;2022-07-05T04:30:23;1.60;;;1.50;;
16029;SDS011;34770;49.272;11.070;2022-07-05T04:32:50;2.63;;;2.20;;
16029;SDS011;34770;49.272;11.070;2022-07-05T04:35:15;3.08;;;2.03;;
16029;SDS011;34770;49.272;11.070;2022-07-05T04:37:42;5.38;;;2.15;;
16029;SDS011;34770;49.272;11.070;2022-07-05T04:40:08;2.17;;;1.98;;
16029;SDS011;34770;49.272;11.070;2022-07-05T04:42:35;2.42;;;2.22;;
16029;SDS011;34770;49.272;11.070;2022-07-05T04:45:02;2.90;;;2.15;;
16029;SDS011;34770;49.272;11.070;2022-07-05T04:47:27;2.13;;;1.98;;
16029;SDS011;34770;49.272;11.070;2022-07-05T04:49:53;2.17;;;1.98;;
16029;SDS011;34770;49.272;11.070;2022-07-05T04:52:20;3.13;;;2.13;;
16029;SDS011;34770;49.272;11.070;2022-07-05T04:54:45;2.53;;;1.83;;
16029;SDS011;34770;49.272;11.070;2022-07-05T04:57:11;3.90;;;2.25;;
16029;SDS011;34770;49.272;11.070;2022-07-05T04:59:36;2.88;;;2.45;;
16029;SDS011;34770;49.272;11.070;2022-07-05T05:02:02;1.98;;;1.85;;
16029;SDS011;34770;49.272;11.070;2022-07-05T05:04:27;3.90;;;1.98;;
16029;SDS011;34770;49.272;11.070;2022-07-05T05:06:53;1.85;;;1.75;;
16029;SDS011;34770;49.272;11.070;2022-07-05T05:09:18;3.58;;;1.92;;
16029;SDS011;34770;49.272;11.070;2022-07-05T05:11:43;2.53;;;2.05;;
16029;SDS011;34770;49.272;11.070;2022-07-05T05:14:09;2.28;;;2.08;;
16029;SDS011;34770;49.272;11.070;2022-07-05T05:16:34;2.20;;;2.00;;
16029;SDS011;34770;49.272;11.070;2022-07-05T05:19:00;6.57;;;1.98;;
16029;SDS011;34770;49.272;11.070;2022-07-05T05:21:25;2.17;;;1.98;;
16029;SDS011;34770;49.272;11.070;2022-07-05T05:23:50;2.50;;;2.30;;
16029;SDS011;34770;49.272;11.070;2022-07-05T05:26:16;3.42;;;2.20;;
16029;SDS011;34770;49.272;11.070;2022-07-05T05:28:41;2.20;;;2.00;;
16029;SDS011;34770;49.272;11.070;2022-07-05T05:31:07;3.38;;;2.63;;
16029;SDS011;34770;49.272;11.070;2022-07-05T05:33:32;2.78;;;1.95;;
16029;SDS011;34770;49.272;11.070;2022-07-05T05:35:58;2.83;;;1.80;;
16029;SDS011;34770;49.272;11.070;2022-07-05T05:38:25;8.48;;;2.25;;
16029;SDS011;34770;49.272;11.070;2022-07-05T05:40:50;3.83;;;1.90;;
16029;SDS011;34770;49.272;11.070;2022-07-05T05:43:15;3.00;;;2.05;;
16029;SDS011;34770;49.272;11.070;2022-07-05T05:45:42;3.03;;;1.90;;
16029;SDS011;34770;49.272;11.070;2022-07-05T05:48:07;5.07;;;2.15;;
16029;SDS011;34770;49.272;11.070;2022-07-05T05:50:34;4.50;;;1.80;;
16029;SDS011;34770;49.272;11.070;2022-07-05T05:53:01;2.38;;;2.00;;
16029;SDS011;34770;49.272;11.070;2022-07-05T05:55:28;3.60;;;1.70;;
16029;SDS011;34770;49.272;11.070;2022-07-05T05:57:55;1.52;;;1.42;;
16029;SDS011;34770;49.272;11.070;2022-07-05T06:00:21;3.33;;;1.55;;
16029;SDS011;34770;49.272;11.070;2022-07-05T06:02:48;1.60;;;1.50;;
16029;SDS011;34770;49.272;11.070;2022-07-05T06:05:14;2.75;;;1.60;;
16029;SDS011;34770;49.272;11.070;2022-07-05T06:12:46;2.90;;;1.63;;
16029;SDS011;34770;49.272;11.070;2022-07-05T06:15:12;10.05;;;2.58;;
16029;SDS011;34770;49.272;11.070;2022-07-05T06:17:37;5.78;;;2.05;;
16029;SDS011;34770;49.272;11.070;2022-07-05T06:20:04;1.60;;;1.50;;
16029;SDS011;34770;49.272;11.070;2022-07-05T06:22:31;1.85;;;1.50;;
16029;SDS011;34770;49.272;11.070;2022-07-05T06:24:57;4.55;;;1.73;;
16029;SDS011;34770;49.272;11.070;2022-07-05T06:27:22;1.80;;;1.30;;
16029;SDS011;34770;49.272;11.070;2022-07-05T06:29:48;3.00;;;1.50;;
16029;SDS011;34770;49.272;11.070;2022-07-05T06:32:13;2.65;;;1.27;;
16029;SDS011;34770;49.272;11.070;2022-07-05T06:34:38;5.43;;;1.50;;
16029;SDS011;34770;49.272;11.070;2022-07-05T06:37:04;1.23;;;1.10;;
16029;SDS011;34770;49.272;11.070;2022-07-05T06:39:30;4.95;;;2.13;;
16029;SDS011;34770;49.272;11.070;2022-07-05T06:41:55;1.65;;;1.48;;
16029;SDS011;34770;49.272;11.070;2022-07-05T06:44:20;2.63;;;1.83;;
16029;SDS011;34770;49.272;11.070;2022-07-05T06:46:46;1.90;;;1.70;;
16029;SDS011;34770;49.272;11.070;2022-07-05T06:49:11;4.18;;;1.45;;
16029;SDS011;34770;49.272;11.070;2022-07-05T06:51:36;3.63;;;1.60;;
16029;SDS011;34770;49.272;11.070;2022-07-05T06:54:02;2.65;;;1.70;;
16029;SDS011;34770;49.272;11.070;2022-07-05T06:56:27;1.80;;;1.30;;
16029;SDS011;34770;49.272;11.070;2022-07-05T06:58:52;3.53;;;1.25;;
16029;SDS011;34770;49.272;11.070;2022-07-05T07:01:18;9.65;;;2.13;;
16029;SDS011;34770;49.272;11.070;2022-07-05T07:03:43;6.75;;;1.42;;
16029;SDS011;34770;49.272;11.070;2022-07-05T07:06:09;2.08;;;1.15;;
16029;SDS011;34770;49.272;11.070;2022-07-05T07:08:34;2.28;;;1.58;;
16029;SDS011;34770;49.272;11.070;2022-07-05T07:11:18;2.30;;;1.20;;
16029;SDS011;34770;49.272;11.070;2022-07-05T07:13:43;2.92;;;1.30;;
16029;SDS011;34770;49.272;11.070;2022-07-05T07:16:09;1.95;;;1.20;;
16029;SDS011;34770;49.272;11.070;2022-07-05T07:18:34;2.38;;;1.38;;
16029;SDS011;34770;49.272;11.070;2022-07-05T07:21:00;1.73;;;1.45;;
16029;SDS011;34770;49.272;11.070;2022-07-05T07:23:26;3.22;;;1.50;;
16029;SDS011;34770;49.272;11.070;2022-07-05T07:25:51;1.95;;;1.33;;
16029;SDS011;34770;49.272;11.070;2022-07-05T07:28:17;3.33;;;1.92;;
16029;SDS011;34770;49.272;11.070;2022-07-05T07:30:42;2.05;;;1.42;;
16029;SDS011;34770;49.272;11.070;2022-07-05T07:33:07;3.55;;;2.00;;
16029;SDS011;34770;49.272;11.070;2022-07-05T07:35:33;5.10;;;1.88;;
16029;SDS011;34770;49.272;11.070;2022-07-05T07:37:58;2.28;;;1.63;;
16029;SDS011;34770;49.272;11.070;2022-07-05T07:40:23;3.25;;;1.70;;
16029;SDS011;34770;49.272;11.070;2022-07-05T07:42:49;5.53;;;1.73;;
16029;SDS011;34770;49.272;11.070;2022-07-05T07:45:14;1.15;;;1.02;;
16029;SDS011;34770;49.272;11.070;2022-07-05T07:47:40;2.85;;;1.30;;
16029;SDS011;34770;49.272;11.070;2022-07-05T07:50:05;3.67;;;1.27;;
16029;SDS011;34770;49.272;11.070;2022-07-05T07:52:31;1.98;;;1.30;;
16029;SDS011;34770;49.272;11.070;2022-07-05T07:54:58;3.17;;;1.23;;
16029;SDS011;34770;49.272;11.070;2022-07-05T07:57:24;2.35;;;1.25;;
16029;SDS011;34770;49.272;11.070;2022-07-05T07:59:49;4.03;;;1.25;;
16029;SDS011;34770;49.272;11.070;2022-07-05T08:02:15;2.35;;;1.40;;
16029;SDS011;34770;49.272;11.070;2022-07-05T08:04:42;2.33;;;1.30;;
16029;SDS011;34770;49.272;11.070;2022-07-05T08:07:07;1.23;;;1.00;;
16029;SDS011;34770;49.272;11.070;2022-07-05T08:09:33;1.55;;;1.10;;
16029;SDS011;34770;49.272;11.070;2022-07-05T08:11:58;1.05;;;0.95;;
16029;SDS011;34770;49.272;11.070;2022-07-05T08:14:24;1.63;;;1.13;;
16029;SDS011;34770;49.272;11.070;2022-07-05T08:16:50;3.03;;;1.10;;
16029;SDS011;34770;49.272;11.070;2022-07-05T08:19:16;2.88;;;1.10;;
16029;SDS011;34770;49.272;11.070;2022-07-05T08:22:01;2.08;;;1.20;;
16029;SDS011;34770;49.272;11.070;2022-07-05T08:24:27;1.10;;;1.00;;
16029;SDS011;34770;49.272;11.070;2022-07-05T08:26:53;6.40;;;1.25;;
16029;SDS011;34770;49.272;11.070;2022-07-05T08:29:18;4.43;;;1.27;;
16029;SDS011;34770;49.272;11.070;2022-07-05T08:31:45;1.60;;;1.17;;
16029;SDS011;34770;49.272;11.070;2022-07-05T08:34:13;0.88;;;0.75;;
16029;SDS011;34770;49.272;11.070;2022-07-05T08:36:39;2.50;;;1.05;;
16029;SDS011;34770;49.272;11.070;2022-07-05T08:39:06;2.53;;;1.00;;
16029;SDS011;34770;49.272;11.070;2022-07-05T08:41:34;2.05;;;0.93;;
16029;SDS011;34770;49.272;11.070;2022-07-05T08:44:01;3.50;;;0.93;;
16029;SDS011;34770;49.272;11.070;2022-07-05T08:46:29;2.80;;;0.90;;
16029;SDS011;34770;49.272;11.070;2022-07-05T08:48:56;1.23;;;0.95;;
16029;SDS011;34770;49.272;11.070;2022-07-05T08:51:24;1.63;;;0.90;;
16029;SDS011;34770;49.272;11.070;2022-07-05T08:53:53;1.90;;;0.93;;
16029;SDS011;34770;49.272;11.070;2022-07-05T08:56:21;1.90;;;1.23;;
16029;SDS011;34770;49.272;11.070;2022-07-05T08:58:46;2.05;;;1.10;;
16029;SDS011;34770;49.272;11.070;2022-07-05T09:01:12;1.92;;;1.00;;
16029;SDS011;34770;49.272;11.070;2022-07-05T09:06:12;2.15;;;0.90;;
16029;SDS011;34770;49.272;11.070;2022-07-05T09:08:41;3.55;;;1.08;;
16029;SDS011;34770;49.272;11.070;2022-07-05T09:11:07;2.17;;;1.35;;
16029;SDS011;34770;49.272;11.070;2022-07-05T09:13:42;3.67;;;1.08;;
16029;SDS011;34770;49.272;11.070;2022-07-05T09:16:14;1.05;;;0.90;;
16029;SDS011;34770;49.272;11.070;2022-07-05T09:18:41;2.20;;;1.00;;
16029;SDS011;34770;49.272;11.070;2022-07-05T09:23:41;2.97;;;0.90;;
16029;SDS011;34770;49.272;11.070;2022-07-05T09:26:07;2.22;;;0.98;;
16029;SDS011;34770;49.272;11.070;2022-07-05T09:28:33;5.10;;;1.70;;
16029;SDS011;34770;49.272;11.070;2022-07-05T09:30:58;1.33;;;1.00;;
16029;SDS011;34770;49.272;11.070;2022-07-05T09:33:24;2.20;;;0.93;;
16029;SDS011;34770;49.272;11.070;2022-07-05T09:35:53;1.15;;;0.80;;
16029;SDS011;34770;49.272;11.070;2022-07-05T09:38:22;1.42;;;1.00;;
16029;SDS011;34770;49.272;11.070;2022-07-05T09:43:18;2.40;;;1.00;;
16029;SDS011;34770;49.272;11.070;2022-07-05T09:45:55;1.20;;;0.90;;
16029;SDS011;34770;49.272;11.070;2022-07-05T09:48:24;0.90;;;0.90;;
16029;SDS011;34770;49.272;11.070;2022-07-05T09:50:50;1.65;;;0.85;;
16029;SDS011;34770;49.272;11.070;2022-07-05T09:53:19;1.42;;;1.00;;
16029;SDS011;34770;49.272;11.070;2022-07-05T09:56:00;1.80;;;0.80;;
16029;SDS011;34770;49.272;11.070;2022-07-05T09:58:27;1.98;;;0.88;;
16029;SDS011;34770;49.272;11.070;2022-07-05T10:00:52;2.63;;;1.08;;
16029;SDS011;34770;49.272;11.070;2022-07-05T10:03:18;2.67;;;1.15;;
16029;SDS011;34770;49.272;11.070;2022-07-05T10:05:43;1.42;;;0.80;;
16029;SDS011;34770;49.272;11.070;2022-07-05T10:08:09;1.77;;;1.00;;
16029;SDS011;34770;49.272;11.070;2022-07-05T10:10:37;1.30;;;0.82;;
16029;SDS011;34770;49.272;11.070;2022-07-05T10:13:03;1.38;;;0.80;;
16029;SDS011;34770;49.272;11.070;2022-07-05T10:15:35;2.67;;;1.08;;
16029;SDS011;34770;49.272;11.070;2022-07-05T10:18:07;4.47;;;0.93;;
16029;SDS011;34770;49.272;11.070;2022-07-05T10:23:07;3.22;;;1.00;;
16029;SDS011;34770;49.272;11.070;2022-07-05T10:25:37;2.08;;;1.20;;
16029;SDS011;34770;49.272;11.070;2022-07-05T10:28:05;2.88;;;0.93;;
16029;SDS011;34770;49.272;11.070;2022-07-05T10:30:31;1.17;;;1.08;;
16029;SDS011;34770;49.272;11.070;2022-07-05T10:33:03;1.85;;;1.05;;
16029;SDS011;34770;49.272;11.070;2022-07-05T10:35:32;1.80;;;1.00;;
16029;SDS011;34770;49.272;11.070;2022-07-05T10:37:58;2.03;;;1.00;;
16029;SDS011;34770;49.272;11.070;2022-07-05T10:40:24;1.48;;;0.95;;
16029;SDS011;34770;49.272;11.070;2022-07-05T10:42:52;1.70;;;0.70;;
16029;SDS011;34770;49.272;11.070;2022-07-05T10:45:21;1.00;;;0.70;;
16029;SDS011;34770;49.272;11.070;2022-07-05T10:53:22;2.80;;;0.82;;
16029;SDS011;34770;49.272;11.070;2022-07-05T10:58:19;4.72;;;1.40;;
16029;SDS011;34770;49.272;11.070;2022-07-05T11:00:47;2.35;;;0.98;;
16029;SDS011;34770;49.272;11.070;2022-07-05T11:06:02;1.35;;;0.88;;
16029;SDS011;34770;49.272;11.070;2022-07-05T11:08:29;1.10;;;0.80;;
16029;SDS011;34770;49.272;11.070;2022-07-05T11:11:10;1.20;;;0.90;;
16029;SDS011;34770;49.272;11.070;2022-07-05T11:13:37;1.65;;;0.75;;
16029;SDS011;34770;49.272;11.070;2022-07-05T11:18:46;2.90;;;1.00;;
16029;SDS011;34770;49.272;11.070;2022-07-05T11:21:20;1.45;;;0.80;;
16029;SDS011;34770;49.272;11.070;2022-07-05T11:23:47;3.42;;;1.00;;
16029;SDS011;34770;49.272;11.070;2022-07-05T11:26:13;1.42;;;0.90;;
16029;SDS011;34770;49.272;11.070;2022-07-05T11:28:42;1.17;;;0.98;;
16029;SDS011;34770;49.272;11.070;2022-07-05T11:31:10;3.85;;;0.93;;
16029;SDS011;34770;49.272;11.070;2022-07-05T11:36:03;5.85;;;0.85;;
16029;SDS011;34770;49.272;11.070;2022-07-05T11:38:30;2.22;;;0.85;;
16029;SDS011;34770;49.272;11.070;2022-07-05T11:40:56;1.73;;;0.70;;
16029;SDS011;34770;49.272;11.070;2022-07-05T11:43:35;0.88;;;0.60;;
16029;SDS011;34770;49.272;11.070;2022-07-05T11:46:01;4.78;;;0.80;;
16029;SDS011;34770;49.272;11.070;2022-07-05T11:48:28;2.35;;;0.98;;
16029;SDS011;34770;49.272;11.070;2022-07-05T11:50:54;2.90;;;0.88;;
16029;SDS011;34770;49.272;11.070;2022-07-05T11:53:31;1.00;;;0.90;;
16029;SDS011;34770;49.272;11.070;2022-07-05T11:55:57;1.17;;;1.08;;
16029;SDS011;34770;49.272;11.070;2022-07-05T11:58:31;1.90;;;0.93;;
16029;SDS011;34770;49.272;11.070;2022-07-05T12:00:57;1.77;;;1.00;;
16029;SDS011;34770;49.272;11.070;2022-07-05T12:03:23;2.42;;;1.00;;
16029;SDS011;34770;49.272;11.070;2022-07-05T12:05:49;7.70;;;2.53;;
16029;SDS011;34770;49.272;11.070;2022-07-05T12:08:21;1.77;;;0.95;;
16029;SDS011;34770;49.272;11.070;2022-07-05T12:10:47;3.65;;;0.82;;
16029;SDS011;34770;49.272;11.070;2022-07-05T12:13:48;4.13;;;1.55;;
16029;SDS011;34770;49.272;11.070;2022-07-05T12:16:15;3.25;;;1.05;;
16029;SDS011;34770;49.272;11.070;2022-07-05T12:18:51;1.48;;;1.00;;
16029;SDS011;34770;49.272;11.070;2022-07-05T12:21:17;1.38;;;0.90;;
16029;SDS011;34770;49.272;11.070;2022-07-05T12:23:45;2.15;;;1.00;;
16029;SDS011;34770;49.272;11.070;2022-07-05T12:26:14;4.18;;;0.90;;
16029;SDS011;34770;49.272;11.070;2022-07-05T12:28:41;0.85;;;0.70;;
16029;SDS011;34770;49.272;11.070;2022-07-05T12:31:17;0.82;;;0.80;;
16029;SDS011;34770;49.272;11.070;2022-07-05T12:33:44;1.65;;;0.95;;
16029;SDS011;34770;49.272;11.070;2022-07-05T12:36:11;2.20;;;1.67;;
16029;SDS011;34770;49.272;11.070;2022-07-05T12:38:38;1.95;;;1.02;;
16029;SDS011;34770;49.272;11.070;2022-07-05T12:41:03;1.15;;;0.95;;
16029;SDS011;34770;49.272;11.070;2022-07-05T12:43:29;1.58;;;0.95;;
16029;SDS011;34770;49.272;11.070;2022-07-05T12:48:50;1.48;;;0.80;;
16029;SDS011;34770;49.272;11.070;2022-07-05T12:51:30;2.38;;;1.00;;
16029;SDS011;34770;49.272;11.070;2022-07-05T12:53:57;0.90;;;0.70;;
16029;SDS011;34770;49.272;11.070;2022-07-05T12:56:45;1.92;;;0.85;;
16029;SDS011;34770;49.272;11.070;2022-07-05T12:59:31;1.40;;;0.90;;
16029;SDS011;34770;49.272;11.070;2022-07-05T13:01:56;2.22;;;0.90;;
16029;SDS011;34770;49.272;11.070;2022-07-05T13:04:21;1.50;;;1.05;;
16029;SDS011;34770;49.272;11.070;2022-07-05T13:12:14;1.27;;;1.00;;
16029;SDS011;34770;49.272;11.070;2022-07-05T13:14:42;1.45;;;0.88;;
16029;SDS011;34770;49.272;11.070;2022-07-05T13:17:09;1.23;;;0.85;;
16029;SDS011;34770;49.272;11.070;2022-07-05T13:19:36;1.17;;;1.08;;
16029;SDS011;34770;49.272;11.070;2022-07-05T13:22:03;0.80;;;0.80;;
16029;SDS011;34770;49.272;11.070;2022-07-05T13:24:29;2.78;;;0.80;;
16029;SDS011;34770;49.272;11.070;2022-07-05T13:26:55;2.45;;;1.02;;
16029;SDS011;34770;49.272;11.070;2022-07-05T13:29:20;1.30;;;0.90;;
16029;SDS011;34770;49.272;11.070;2022-07-05T13:31:46;1.52;;;0.90;;
16029;SDS011;34770;49.272;11.070;2022-07-05T13:34:11;4.35;;;1.10;;
16029;SDS011;34770;49.272;11.070;2022-07-05T13:36:37;3.25;;;1.10;;
16029;SDS011;34770;49.272;11.070;2022-07-05T13:39:02;1.35;;;0.90;;
16029;SDS011;34770;49.272;11.070;2022-07-05T13:41:28;2.55;;;1.02;;
16029;SDS011;34770;49.272;11.070;2022-07-05T13:43:54;3.42;;;1.35;;
16029;SDS011;34770;49.272;11.070;2022-07-05T13:46:19;1.40;;;1.30;;
16029;SDS011;34770;49.272;11.070;2022-07-05T13:48:45;3.25;;;1.00;;
16029;SDS011;34770;49.272;11.070;2022-07-05T13:51:10;3.33;;;1.30;;
16029;SDS011;34770;49.272;11.070;2022-07-05T13:53:35;1.98;;;0.90;;
16029;SDS011;34770;49.272;11.070;2022-07-05T13:56:02;2.28;;;1.05;;
16029;SDS011;34770;49.272;11.070;2022-07-05T13:58:29;1.77;;;1.10;;
16029;SDS011;34770;49.272;11.070;2022-07-05T14:00:54;1.60;;;0.75;;
16029;SDS011;34770;49.272;11.070;2022-07-05T14:03:20;2.20;;;0.90;;
16029;SDS011;34770;49.272;11.070;2022-07-05T14:05:45;1.25;;;0.90;;
16029;SDS011;34770;49.272;11.070;2022-07-05T14:08:11;2.20;;;0.80;;
16029;SDS011;34770;49.272;11.070;2022-07-05T14:10:37;3.00;;;0.82;;
16029;SDS011;34770;49.272;11.070;2022-07-05T14:13:03;2.30;;;0.80;;
16029;SDS011;34770;49.272;11.070;2022-07-05T14:15:28;1.35;;;1.00;;
16029;SDS011;34770;49.272;11.070;2022-07-05T14:17:53;4.45;;;1.20;;
16029;SDS011;34770;49.272;11.070;2022-07-05T14:20:19;3.70;;;1.00;;
16029;SDS011;34770;49.272;11.070;2022-07-05T14:22:44;3.10;;;0.80;;
16029;SDS011;34770;49.272;11.070;2022-07-05T14:25:10;1.38;;;0.82;;
16029;SDS011;34770;49.272;11.070;2022-07-05T14:27:36;1.38;;;0.80;;
16029;SDS011;34770;49.272;11.070;2022-07-05T14:30:02;2.53;;;0.90;;
16029;SDS011;34770;49.272;11.070;2022-07-05T14:32:29;0.90;;;0.90;;
16029;SDS011;34770;49.272;11.070;2022-07-05T14:34:54;2.95;;;1.30;;
16029;SDS011;34770;49.272;11.070;2022-07-05T14:37:19;0.90;;;0.70;;
16029;SDS011;34770;49.272;11.070;2022-07-05T14:39:47;1.92;;;1.00;;
16029;SDS011;34770;49.272;11.070;2022-07-05T14:42:14;3.88;;;0.88;;
16029;SDS011;34770;49.272;11.070;2022-07-05T14:44:39;1.00;;;0.90;;
16029;SDS011;34770;49.272;11.070;2022-07-05T14:47:05;1.02;;;0.80;;
16029;SDS011;34770;49.272;11.070;2022-07-05T14:49:30;2.25;;;1.20;;
16029;SDS011;34770;49.272;11.070;2022-07-05T14:51:56;1.75;;;0.80;;
16029;SDS011;34770;49.272;11.070;2022-07-05T14:54:21;2.88;;;0.75;;
16029;SDS011;34770;49.272;11.070;2022-07-05T14:56:46;1.45;;;0.75;;
16029;SDS011;34770;49.272;11.070;2022-07-05T14:59:12;2.35;;;0.95;;
16029;SDS011;34770;49.272;11.070;2022-07-05T15:01:37;2.03;;;0.90;;
16029;SDS011;34770;49.272;11.070;2022-07-05T15:04:03;3.28;;;0.98;;
16029;SDS011;34770;49.272;11.070;2022-07-05T15:06:28;2.67;;;0.93;;
16029;SDS011;34770;49.272;11.070;2022-07-05T15:08:53;1.52;;;0.93;;
16029;SDS011;34770;49.272;11.070;2022-07-05T15:11:19;1.42;;;0.90;;
16029;SDS011;34770;49.272;11.070;2022-07-05T15:13:44;1.25;;;0.70;;